Chalk River, Canada
Current Conditions -  °F | °C
As of 12:00 AM on Monday 20 Oct 2014 (Local Time) from CYWA Reporting Station
Clear Clear  
Wind Chill: 32°   Ceiling: Unl
Heat Index: 32°   Visibility: 9mi
Dew Point: 25°   Wind: 3mph
Humidity: 75%   Direction: 220°SW
Pressure: 29.98"   Gusts: NA
Location:  46.02°N, 77.45°W
Report Text: CYWA 200400Z AUTO 22003KT 9SM CLR 00/M04 A2998 RMK SLP160
Loading
Personal Weather Stations






























Interactive Weather Map
Tropical Storm Tracking
New forecast layout! Learn more

10-Day Weather Forecast

Advertisements
Track Severe Weather on mobile